createdAt,value
2018-09-21T00:02:04.548Z,19.24
2018-09-21T00:05:08.212Z,18.97
2018-09-21T00:08:11.795Z,18.79
2018-09-21T00:11:15.342Z,19.14
2018-09-21T00:14:18.918Z,18.99
2018-09-21T00:17:22.495Z,18.70
2018-09-21T00:20:26.053Z,18.80
2018-09-21T00:23:29.595Z,18.73
2018-09-21T00:26:33.254Z,18.58
2018-09-21T00:29:36.836Z,18.56
2018-09-21T00:32:40.370Z,18.47
2018-09-21T00:35:43.944Z,18.28
2018-09-21T00:38:47.463Z,18.11
2018-09-21T00:41:51.018Z,17.92
2018-09-21T00:44:54.600Z,17.89
2018-09-21T00:47:58.097Z,17.84
2018-09-21T00:51:01.554Z,17.93
2018-09-21T00:54:05.159Z,17.95
2018-09-21T00:57:08.718Z,18.00
2018-09-21T01:00:12.300Z,18.07
2018-09-21T01:03:15.873Z,18.30
2018-09-21T01:06:19.479Z,18.46
2018-09-21T01:09:23.204Z,18.43
2018-09-21T01:12:26.865Z,18.33
2018-09-21T01:15:30.490Z,18.08
2018-09-21T01:18:34.080Z,18.00
2018-09-21T01:21:37.740Z,17.90
2018-09-21T01:24:41.337Z,18.27
2018-09-21T01:27:44.889Z,18.19
2018-09-21T01:30:48.468Z,18.17
2018-09-21T01:33:52.016Z,18.06
2018-09-21T01:36:55.606Z,18.15
2018-09-21T01:39:59.263Z,17.98
2018-09-21T01:43:02.794Z,17.89
2018-09-21T01:46:06.765Z,17.96
2018-09-21T01:49:10.404Z,19.01
2018-09-21T01:52:13.955Z,19.16
2018-09-21T01:55:17.548Z,19.29
2018-09-21T01:58:21.275Z,19.51
2018-09-21T02:01:24.919Z,19.28
2018-09-21T02:04:33.701Z,18.94
2018-09-21T02:07:37.239Z,18.66
2018-09-21T02:10:40.794Z,18.88
2018-09-21T02:13:44.270Z,19.08
2018-09-21T02:16:47.894Z,19.28
2018-09-21T02:19:51.549Z,19.44
2018-09-21T02:22:55.088Z,19.26
2018-09-21T02:25:58.595Z,19.26
2018-09-21T02:29:02.232Z,18.92
2018-09-21T02:32:05.905Z,18.64
2018-09-21T02:35:09.907Z,18.42
2018-09-21T02:38:13.420Z,18.43
2018-09-21T02:41:17.158Z,18.55
2018-09-21T02:44:20.714Z,18.34
2018-09-21T02:47:24.255Z,18.37
2018-09-21T02:50:27.836Z,18.49
2018-09-21T02:53:31.582Z,18.50
2018-09-21T02:56:35.766Z,18.79
2018-09-21T02:59:39.365Z,19.07
2018-09-21T03:02:43.764Z,19.20
2018-09-21T03:05:47.365Z,19.47
2018-09-21T03:08:51.011Z,19.90
2018-09-21T03:11:54.637Z,19.83
2018-09-21T03:14:58.320Z,19.67
2018-09-21T03:18:01.837Z,19.53
2018-09-21T03:21:05.481Z,19.47
2018-09-21T03:24:09.114Z,20.04
2018-09-21T03:27:12.647Z,20.09
2018-09-21T03:30:16.135Z,19.80
2018-09-21T03:33:19.769Z,19.92
2018-09-21T03:36:23.354Z,19.76
2018-09-21T03:39:26.896Z,19.72
2018-09-21T03:42:30.400Z,19.59
2018-09-21T03:45:33.987Z,19.38
2018-09-21T03:48:37.652Z,19.75
2018-09-21T03:51:41.452Z,19.96
2018-09-21T03:54:45.075Z,19.91
2018-09-21T03:57:48.675Z,19.67
2018-09-21T04:00:52.320Z,19.67
2018-09-21T04:03:55.856Z,19.75
2018-09-21T04:06:59.376Z,19.61
2018-09-21T04:10:03.209Z,19.36
2018-09-21T04:13:06.777Z,19.54
2018-09-21T04:16:10.273Z,19.97
2018-09-21T04:19:13.825Z,20.17
2018-09-21T04:22:17.396Z,20.10
2018-09-21T04:25:21.095Z,19.94
2018-09-21T04:28:24.632Z,20.24
2018-09-21T04:31:28.233Z,20.29
2018-09-21T04:34:31.788Z,20.40
2018-09-21T04:37:35.355Z,20.39
2018-09-21T04:40:38.916Z,20.62
2018-09-21T04:43:42.442Z,20.44
2018-09-21T04:46:45.983Z,20.85
2018-09-21T04:49:49.556Z,20.78
2018-09-21T04:52:53.043Z,20.51
2018-09-21T04:55:56.611Z,20.62
2018-09-21T04:59:00.296Z,20.95
2018-09-21T05:02:03.860Z,21.02
2018-09-21T05:05:07.652Z,20.65
2018-09-21T05:08:11.231Z,20.70
2018-09-21T05:11:14.821Z,20.77
2018-09-21T05:14:18.520Z,20.49
2018-09-21T05:17:22.117Z,20.51
2018-09-21T05:20:25.822Z,20.55
2018-09-21T05:23:29.321Z,20.68
2018-09-21T05:26:32.767Z,20.99
2018-09-21T05:29:36.499Z,21.08
2018-09-21T05:32:40.332Z,21.15
2018-09-21T05:35:46.417Z,21.36
2018-09-21T05:38:49.927Z,21.51
2018-09-21T05:41:53.463Z,21.44
2018-09-21T05:44:57.082Z,21.39
2018-09-21T05:48:00.562Z,21.63
2018-09-21T05:51:04.183Z,22.09
2018-09-21T05:54:07.862Z,22.36
2018-09-21T05:57:11.527Z,22.39
2018-09-21T06:00:16.626Z,22.75
2018-09-21T06:03:20.291Z,22.76
2018-09-21T06:06:23.973Z,22.22
2018-09-21T06:09:27.493Z,22.41
2018-09-21T06:12:31.068Z,22.78
2018-09-21T06:15:34.656Z,23.07
2018-09-21T06:18:38.136Z,23.58
2018-09-21T06:21:41.674Z,23.68
2018-09-21T06:24:45.157Z,23.43
2018-09-21T06:27:48.699Z,23.40
2018-09-21T06:30:52.234Z,23.31
2018-09-21T06:33:55.838Z,23.03
2018-09-21T06:36:59.348Z,22.76
2018-09-21T06:40:02.915Z,22.94
2018-09-21T06:43:06.467Z,23.00
2018-09-21T06:46:09.962Z,23.01
2018-09-21T06:49:13.499Z,23.05
2018-09-21T06:52:16.987Z,22.99
2018-09-21T06:55:20.553Z,22.87
2018-09-21T06:58:24.097Z,22.95
2018-09-21T07:01:27.750Z,22.73
2018-09-21T07:04:31.109Z,22.70
2018-09-21T07:07:34.697Z,22.58
2018-09-21T07:10:38.212Z,22.69
2018-09-21T07:13:41.784Z,22.94
2018-09-21T07:16:45.492Z,22.95
2018-09-21T07:19:49.053Z,23.03
2018-09-21T07:22:52.629Z,23.36
2018-09-21T07:25:56.173Z,23.47
2018-09-21T07:28:59.667Z,23.54
2018-09-21T07:32:03.212Z,23.75
2018-09-21T07:35:06.845Z,23.90
2018-09-21T07:38:10.405Z,24.01
2018-09-21T07:41:14.015Z,24.06
2018-09-21T07:44:17.599Z,23.86
2018-09-21T07:47:21.162Z,23.95
2018-09-21T07:50:24.801Z,24.12
2018-09-21T07:53:28.369Z,24.39
2018-09-21T07:56:31.908Z,24.50
2018-09-21T07:59:35.384Z,24.54
2018-09-21T08:02:39.043Z,24.06
2018-09-21T08:05:42.520Z,24.01
2018-09-21T08:08:46.078Z,23.86
2018-09-21T08:11:49.660Z,23.84
2018-09-21T08:14:53.199Z,23.86
2018-09-21T08:17:56.854Z,23.88
2018-09-21T08:21:00.365Z,23.85
2018-09-21T08:24:04.303Z,23.90
2018-09-21T08:27:09.380Z,23.92
2018-09-21T08:30:12.855Z,23.87
2018-09-21T08:33:16.444Z,23.75
2018-09-21T08:36:19.990Z,23.88
2018-09-21T08:39:23.536Z,23.99
2018-09-21T08:42:27.128Z,23.91
2018-09-21T08:45:30.694Z,24.00
2018-09-21T08:48:34.227Z,23.83
2018-09-21T08:51:39.036Z,23.88
2018-09-21T08:54:42.573Z,24.04
2018-09-21T08:57:46.155Z,23.97
2018-09-21T09:00:49.745Z,23.99
2018-09-21T09:03:53.274Z,24.10
2018-09-21T09:06:56.918Z,24.01
2018-09-21T09:10:00.558Z,23.79
2018-09-21T09:13:04.077Z,23.97
2018-09-21T09:16:07.710Z,23.80
2018-09-21T09:19:11.328Z,24.02
2018-09-21T09:22:14.841Z,24.13
2018-09-21T09:25:18.360Z,23.85
2018-09-21T09:28:22.681Z,23.73
2018-09-21T09:31:26.184Z,23.76
2018-09-21T09:34:29.729Z,23.90
2018-09-21T09:37:33.276Z,23.87
2018-09-21T09:40:36.789Z,24.09
2018-09-21T09:43:40.289Z,23.95
2018-09-21T09:46:43.936Z,23.58
2018-09-21T09:49:47.459Z,23.35
2018-09-21T09:52:50.982Z,23.10
2018-09-21T09:55:54.561Z,22.62
2018-09-21T09:58:58.235Z,22.06
2018-09-21T10:02:01.934Z,21.49
2018-09-21T10:05:05.583Z,20.81
2018-09-21T10:08:09.438Z,20.51
2018-09-21T10:11:13.047Z,20.54
2018-09-21T10:14:16.672Z,20.42
2018-09-21T10:17:20.311Z,20.19
2018-09-21T10:20:23.806Z,19.90
2018-09-21T10:23:27.429Z,19.02
2018-09-21T10:26:30.932Z,18.23
2018-09-21T10:29:34.450Z,17.01
2018-09-21T10:32:37.898Z,15.89
2018-09-21T10:35:41.474Z,15.11
2018-09-21T10:38:44.941Z,14.83
2018-09-21T10:41:48.432Z,14.59
2018-09-21T10:44:51.981Z,14.56
2018-09-21T10:47:55.501Z,14.40
2018-09-21T10:50:59.020Z,14.43
2018-09-21T10:54:02.566Z,14.41
2018-09-21T10:57:06.052Z,14.30
2018-09-21T11:00:10.419Z,14.29
2018-09-21T11:03:13.945Z,14.38
2018-09-21T11:06:17.496Z,14.47
2018-09-21T11:09:21.015Z,14.63
2018-09-21T11:12:24.619Z,14.71
2018-09-21T11:15:28.151Z,14.59
2018-09-21T11:18:31.688Z,14.68
2018-09-21T11:21:35.226Z,14.72
2018-09-21T11:24:38.751Z,14.92
2018-09-21T11:27:42.230Z,14.69
2018-09-21T11:30:45.875Z,14.80
2018-09-21T11:33:49.506Z,14.71
2018-09-21T11:36:53.040Z,14.91
2018-09-21T11:39:56.662Z,15.27
2018-09-21T11:43:00.211Z,15.22
2018-09-21T11:46:03.797Z,15.41
2018-09-21T11:49:07.391Z,15.36
2018-09-21T11:52:11.110Z,15.69
2018-09-21T11:55:14.700Z,15.68
2018-09-21T11:58:18.333Z,15.81
2018-09-21T12:01:21.959Z,15.96
2018-09-21T12:04:25.449Z,15.93
2018-09-21T12:07:29.062Z,15.78
2018-09-21T12:10:32.658Z,15.61
2018-09-21T12:13:36.435Z,15.67
2018-09-21T12:16:40.090Z,15.67
2018-09-21T12:19:43.619Z,15.39
2018-09-21T12:22:47.231Z,15.87
2018-09-21T12:25:50.713Z,15.88
2018-09-21T12:28:54.648Z,16.06
2018-09-21T12:31:58.255Z,15.88
2018-09-21T12:35:01.957Z,15.84
2018-09-21T12:38:05.752Z,15.88
2018-09-21T12:41:09.368Z,15.96
2018-09-21T12:44:14.418Z,15.57
2018-09-21T12:47:18.066Z,15.70
2018-09-21T12:50:21.649Z,15.45
2018-09-21T12:53:25.231Z,15.29
2018-09-21T12:56:28.892Z,15.23
2018-09-21T12:59:32.632Z,15.36
2018-09-21T13:02:36.378Z,15.31
2018-09-21T13:05:39.946Z,15.22
2018-09-21T13:08:43.552Z,15.32
2018-09-21T13:11:47.163Z,15.46
2018-09-21T13:14:50.854Z,15.41
2018-09-21T13:17:54.442Z,15.40
2018-09-21T13:20:58.131Z,15.27
2018-09-21T13:24:01.749Z,15.32
2018-09-21T13:27:05.339Z,15.25
2018-09-21T13:30:09.013Z,15.46
2018-09-21T13:33:12.628Z,15.46
2018-09-21T13:36:16.312Z,15.82
2018-09-21T13:39:19.967Z,15.60
2018-09-21T13:42:23.634Z,15.82
2018-09-21T13:45:27.328Z,15.96
2018-09-21T13:48:30.949Z,15.77
2018-09-21T13:51:34.602Z,15.69
2018-09-21T13:54:38.257Z,15.66
2018-09-21T13:57:41.849Z,15.76
2018-09-21T14:00:45.437Z,15.77
2018-09-21T14:03:48.974Z,15.63
2018-09-21T14:06:52.613Z,15.72
2018-09-21T14:09:56.216Z,15.59
2018-09-21T14:12:59.937Z,15.80
2018-09-21T14:16:03.554Z,15.60
2018-09-21T14:19:07.785Z,15.59
2018-09-21T14:22:11.525Z,15.68
2018-09-21T14:26:40.657Z,15.59
2018-09-21T14:29:44.370Z,15.37
2018-09-21T14:32:47.976Z,15.25
2018-09-21T14:35:51.688Z,15.33
2018-09-21T14:38:55.244Z,15.41
2018-09-21T14:41:58.883Z,15.33
2018-09-21T14:45:02.668Z,15.53
2018-09-21T14:48:06.340Z,15.53
2018-09-21T14:51:10.958Z,15.45
2018-09-21T14:54:14.494Z,15.68
2018-09-21T14:57:18.100Z,15.67
2018-09-21T15:00:21.714Z,15.58
2018-09-21T15:03:25.350Z,15.99
2018-09-21T15:06:29.105Z,16.32
2018-09-21T15:09:32.766Z,16.26
2018-09-21T15:12:36.430Z,16.12
2018-09-21T15:15:39.959Z,16.18
2018-09-21T15:18:43.573Z,16.25
2018-09-21T15:21:47.148Z,16.16
2018-09-21T15:24:50.738Z,16.03
2018-09-21T15:27:54.399Z,16.10
2018-09-21T15:30:58.156Z,16.18
2018-09-21T15:34:01.811Z,15.92
2018-09-21T15:37:05.358Z,15.89
2018-09-21T15:40:09.026Z,15.72
2018-09-21T15:43:12.823Z,15.85
2018-09-21T15:46:16.797Z,15.87
2018-09-21T15:49:20.650Z,15.91
2018-09-21T15:52:24.352Z,15.97
2018-09-21T15:55:28.075Z,16.00
2018-09-21T15:58:31.797Z,15.92
2018-09-21T16:01:35.439Z,15.65
2018-09-21T16:04:39.076Z,15.59
2018-09-21T16:07:42.645Z,15.48
2018-09-21T16:10:46.286Z,15.66
2018-09-21T16:13:49.835Z,15.46
2018-09-21T16:16:53.485Z,15.37
2018-09-21T16:19:57.136Z,15.16
2018-09-21T16:23:00.785Z,15.09
2018-09-21T16:26:04.386Z,15.07
2018-09-21T16:29:08.046Z,15.04
2018-09-21T16:32:11.613Z,14.94
2018-09-21T16:35:15.280Z,14.86
2018-09-21T16:38:20.262Z,14.84
2018-09-21T16:41:23.973Z,14.73
2018-09-21T16:44:27.681Z,14.55
2018-09-21T16:47:31.318Z,14.49
2018-09-21T16:50:34.950Z,14.42
2018-09-21T16:53:38.543Z,14.36
2018-09-21T16:56:42.312Z,14.26
2018-09-21T16:59:46.016Z,14.17
2018-09-21T17:02:49.716Z,14.06
2018-09-21T17:05:53.471Z,13.91
2018-09-21T17:08:57.035Z,13.83
2018-09-21T17:12:00.823Z,13.84
2018-09-21T17:15:04.727Z,13.73
2018-09-21T17:18:08.307Z,13.65
2018-09-21T17:21:11.898Z,13.74
2018-09-21T17:24:15.810Z,13.71
2018-09-21T17:27:19.435Z,13.56
2018-09-21T17:30:22.986Z,13.41
2018-09-21T17:33:26.585Z,13.45
2018-09-21T17:36:30.256Z,13.44
2018-09-21T17:39:33.875Z,13.29
2018-09-21T17:42:37.531Z,13.25
2018-09-21T17:45:41.156Z,13.30
2018-09-21T17:48:44.742Z,13.19
2018-09-21T17:51:48.360Z,13.35
2018-09-21T17:54:52.054Z,13.20
2018-09-21T17:57:55.675Z,13.20
2018-09-21T18:00:59.425Z,13.03
2018-09-21T18:04:03.124Z,13.00
2018-09-21T18:07:06.695Z,12.89
2018-09-21T18:10:10.348Z,12.84
2018-09-21T18:13:13.925Z,12.91
2018-09-21T18:16:17.716Z,12.69
2018-09-21T18:19:21.196Z,12.58
2018-09-21T18:22:25.475Z,12.67
2018-09-21T18:25:29.288Z,12.50
2018-09-21T18:28:33.175Z,12.44
2018-09-21T18:31:36.829Z,12.37
2018-09-21T18:34:40.393Z,12.37
2018-09-21T18:37:44.142Z,12.46
2018-09-21T18:40:47.845Z,12.45
2018-09-21T18:43:51.443Z,12.31
2018-09-21T18:46:55.026Z,12.32
2018-09-21T18:49:58.662Z,12.17
2018-09-21T18:53:02.476Z,12.07
2018-09-21T18:56:06.559Z,12.20
2018-09-21T18:59:10.300Z,12.22
2018-09-21T19:02:13.911Z,12.21
2018-09-21T19:05:17.763Z,12.18
2018-09-21T19:08:21.710Z,12.06
2018-09-21T19:11:25.713Z,12.04
2018-09-21T19:14:29.483Z,12.15
2018-09-21T19:17:33.231Z,12.31
2018-09-21T19:20:37.061Z,12.48
2018-09-21T19:23:41.080Z,12.64
2018-09-21T19:26:45.022Z,12.53
2018-09-21T19:29:48.926Z,11.44
2018-09-21T19:32:52.837Z,10.98
2018-09-21T19:35:56.608Z,10.53
2018-09-21T19:39:00.248Z,10.18
2018-09-21T19:42:04.128Z,9.97
2018-09-21T19:45:07.869Z,9.79
2018-09-21T19:48:11.575Z,9.70
2018-09-21T19:51:15.219Z,9.70
2018-09-21T19:54:18.856Z,9.64
2018-09-21T19:57:22.577Z,9.70
2018-09-21T20:00:26.237Z,9.80
2018-09-21T20:03:29.884Z,9.88
2018-09-21T20:06:33.471Z,9.90
2018-09-21T20:09:37.243Z,9.86
2018-09-21T20:12:40.804Z,9.90
2018-09-21T20:15:44.417Z,9.89
2018-09-21T20:18:48.159Z,9.85
2018-09-21T20:21:51.713Z,9.79
2018-09-21T20:24:55.489Z,9.77
2018-09-21T20:27:59.080Z,9.76
2018-09-21T20:31:07.964Z,9.79
2018-09-21T20:34:11.527Z,9.81
2018-09-21T20:37:15.226Z,9.76
2018-09-21T20:40:18.789Z,9.76
2018-09-21T20:43:22.996Z,9.69
2018-09-21T20:46:27.369Z,9.64
2018-09-21T20:49:31.314Z,9.60
2018-09-21T20:52:37.326Z,9.49
2018-09-21T20:55:41.382Z,9.56
2018-09-21T20:58:45.048Z,9.63
2018-09-21T21:01:48.679Z,9.72
2018-09-21T21:04:52.387Z,9.78
2018-09-21T21:07:56.094Z,9.89
2018-09-21T21:10:59.822Z,9.86
2018-09-21T21:14:03.415Z,9.89
2018-09-21T21:17:07.303Z,9.91
2018-09-21T21:20:10.902Z,9.93
2018-09-21T21:23:14.473Z,10.06
2018-09-21T21:26:18.094Z,10.09
2018-09-21T21:29:21.672Z,10.14
2018-09-21T21:32:25.324Z,10.11
2018-09-21T21:35:28.993Z,10.11
2018-09-21T21:38:32.596Z,10.06
2018-09-21T21:41:36.222Z,10.08
2018-09-21T21:44:39.824Z,9.99
2018-09-21T21:47:43.327Z,9.84
2018-09-21T21:50:46.880Z,9.82
2018-09-21T21:53:50.442Z,9.84
2018-09-21T21:56:53.996Z,9.83
2018-09-21T21:59:57.599Z,9.84
2018-09-21T22:03:01.149Z,9.82
2018-09-21T22:06:04.732Z,9.83
2018-09-21T22:09:09.529Z,9.85
2018-09-21T22:12:18.262Z,9.84
2018-09-21T22:15:21.874Z,9.85
2018-09-21T22:18:25.400Z,9.89
2018-09-21T22:21:29.583Z,9.83
2018-09-21T22:24:33.096Z,9.93
2018-09-21T22:27:36.671Z,9.95
2018-09-21T22:30:40.308Z,10.00
2018-09-21T22:33:43.840Z,10.04
2018-09-21T22:36:47.369Z,10.07
2018-09-21T22:39:51.014Z,10.06
2018-09-21T22:42:54.699Z,10.09
2018-09-21T22:45:58.323Z,10.09
2018-09-21T22:49:03.004Z,10.20
2018-09-21T22:52:06.768Z,10.12
2018-09-21T22:55:10.259Z,10.06
2018-09-21T22:58:13.886Z,10.10
2018-09-21T23:01:17.543Z,10.15
2018-09-21T23:04:21.114Z,10.18
2018-09-21T23:07:24.643Z,10.28
2018-09-21T23:10:28.263Z,10.21
2018-09-21T23:13:31.913Z,10.13
2018-09-21T23:16:35.490Z,10.13
2018-09-21T23:19:40.201Z,10.22
2018-09-21T23:22:43.933Z,10.22
2018-09-21T23:25:47.548Z,10.21
2018-09-21T23:28:51.039Z,10.19
2018-09-21T23:31:54.731Z,10.23
2018-09-21T23:34:58.247Z,10.21
2018-09-21T23:38:01.794Z,10.15
2018-09-21T23:41:05.384Z,10.20
2018-09-21T23:44:09.655Z,10.26
2018-09-21T23:47:13.152Z,10.34
2018-09-21T23:50:16.709Z,10.28
2018-09-21T23:53:20.720Z,10.24
2018-09-21T23:56:24.298Z,10.14
2018-09-21T23:59:27.870Z,10.07
